• Join FlightAware (Why Join?)
  • Login
  • US Flag 
09:51AM EDT


 

Airport Tracker/Info


-or-


 

Live Flight TrackerFlight Track Log ✈ N523JM ✈ 05-Nov-2013 ✈ KIND - KIND

Flight Track Log - Related Links

Times and Time Zones

All times are in EST time to prevent confusion due to time zone crossing. See the N523JM flight status page for this flight to view local times or setup timezone preferences in your user account.

Time Position Orientation Groundspeed Altitude Reporting Facility
EST Latitude Longitude Course Direction KTS MPH feet Rate Location/Type
12:13PM 39.7000 -86.3000 142° Southeast 168 193 1,800  Level Indianapolis TRACON
12:14PM 39.6500 -86.3333 207° Southwest 223 257 5,000 1,560 Climbing Indianapolis TRACON
12:15PM 39.6333 -86.2667 108° East 269 310 5,000  Level Indianapolis TRACON
12:16PM 39.6500 -86.1833 75° East 249 287 5,000  Level Indianapolis TRACON
12:18PM 39.6833 -86.0833 67° East 237 273 5,000  Level Indianapolis TRACON
12:19PM 39.7173 -86.2947 142° Southeast  Level Estimated
12:19PM 39.7003 -86.0028 75° East 231 266 5,000  Level Indianapolis Center
12:20PM 39.7194 -85.9261 72° East 228 262 5,000  Level Indianapolis Center
12:21PM 39.6831 -85.8814 137° Southeast 213 245 5,000  Level Indianapolis Center
12:22PM 39.7092 -85.8186 62° Northeast 219 252 5,000  Level Indianapolis Center
12:23PM 39.7242 -85.7411 76° East 224 258 5,000  Level Indianapolis Center
12:24PM 39.7436 -85.6431 76° East 236 272 5,000  Level Indianapolis Center
12:25PM 39.7806 -85.5658 58° Northeast 251 289 5,000  Level Indianapolis Center
12:26PM 39.8097 -85.4833 65° Northeast 252 290 5,000  Level Indianapolis Center
12:27PM 39.8361 -85.3983 68° East 254 292 5,000  Level Indianapolis Center
12:28PM 39.8592 -85.3236 68° East 263 303 5,000  Level Indianapolis Center
12:29PM 39.8033 -85.3317 186° South 237 273 5,000  Level Indianapolis Center
12:30PM 39.8081 -85.4303 274° West 237 273 5,000  Level Indianapolis Center
12:31PM 39.8214 -85.5144 282° West 238 274 5,000  Level Indianapolis Center
12:32PM 39.8306 -85.5944 279° West 233 268 5,000  Level Indianapolis Center
12:33PM 39.8186 -85.6686 258° West 219 252 5,000  Level Indianapolis Center
12:34PM 39.8117 -85.7411 263° West 210 242 5,000  Level Indianapolis Center
12:35PM 39.8042 -85.8128 262° West 205 236 5,000  Level Indianapolis Center
12:36PM 39.7953 -85.8881 261° West 207 238 5,000  Level Indianapolis Center
12:37PM 39.8522 -85.9428 324° Northwest 230 265 5,000  Level Indianapolis Center
12:38PM 39.9153 -85.9575 350° North 234 269 5,000 -480 Level Indianapolis Center
12:39PM 39.9228 -86.0225 279° West 208 239 4,100 -540 Descending Indianapolis Center
12:40PM 39.9086 -86.0767 251° West 184 212 4,000 -360 Descending Indianapolis Center
12:41PM 39.8653 -86.0967 200° South 172 198 3,400 -540 Descending Indianapolis Center
12:42PM 39.8244 -86.1456 223° Southwest 171 197 3,000 -240 Descending Indianapolis Center
12:43PM 39.7961 -86.1819 225° Southwest 157 181 3,000 -420 Level Indianapolis Center
12:45PM 39.7667 -86.2200 225° Southwest 150 173 2,200 -420 Descending Indianapolis Center
12:46PM 39.7364 -86.2592 225° Southwest 150 173 2,200 1,140 Level Indianapolis Center
12:47PM 39.6917 -86.3208 227° Southwest 202 232 4,600 1,320 Climbing Indianapolis Center
12:48PM 39.6489 -86.3844 229° Southwest 225 259 5,000 180 Climbing Indianapolis Center
12:49PM 39.6075 -86.4475 230° Southwest 231 266 5,000  Level Indianapolis Center
12:50PM 39.5614 -86.4983 220° Southwest 219 252 5,000  Level Indianapolis Center
12:51PM 39.5144 -86.5539 222° Southwest 225 259 5,000  Level Indianapolis Center
12:52PM 39.4650 -86.6111 222° Southwest 234 269 5,000  Level Indianapolis Center
12:53PM 39.4044 -86.6811 222° Southwest 241 277 5,000  Level Indianapolis Center
12:54PM 39.3514 -86.7344 218° Southwest 243 280 5,000  Level Indianapolis Center
12:55PM 39.3739 -86.8033 293° West 267 307 5,000  Level Indianapolis Center
12:56PM 39.4125 -86.7428 50° Northeast 261 300 5,000  Level Indianapolis Center
12:57PM 39.4636 -86.6781 44° Northeast 262 302 5,000  Level Indianapolis Center
12:58PM 39.5281 -86.6208 34° Northeast 277 319 5,000  Level Indianapolis Center
12:59PM 39.6042 -86.5531 34° Northeast 278 320 5,000  Level Indianapolis Center
01:00PM 39.6681 -86.4956 35° Northeast 278 320 5,000  Level Indianapolis Center
01:01PM 39.7256 -86.4294 41° Northeast 276 318 5,000  Level Indianapolis Center
01:02PM 39.7814 -86.3592 44° Northeast 275 316 5,000 -60 Level Indianapolis Center
01:03PM 39.8378 -86.2908 43° Northeast 272 313 4,900 -420 Descending Indianapolis Center
01:04PM 39.8847 -86.2319 44° Northeast 252 290 4,200 -600 Descending Indianapolis Center
01:05PM 39.8892 -86.1708 85° East 213 245 3,700 -600 Descending Indianapolis Center
01:06PM 39.8644 -86.1203 122° Southeast 182 209 3,000 -360 Descending Indianapolis Center
01:07PM 39.8289 -86.1400 203° Southwest 157 181 3,000 -120 Level Indianapolis Center
01:08PM 39.7878 -86.1925 224° Southwest 164 189 2,800 -600 Descending Indianapolis Center
01:09PM 39.7544 -86.2358 225° Southwest 167 192 1,800 -240 Descending Indianapolis Center
01:10PM 39.7192 -86.2803 224° Southwest 167 192 2,400 540 Climbing Indianapolis Center
01:11PM 39.6628 -86.3050 199° South 215 247 3,000 240 Climbing Indianapolis Center
01:12PM 39.6236 -86.2433 129° Southeast 225 259 3,000  Level Indianapolis Center
01:13PM 39.6414 -86.1664 73° East 236 272 3,000  Level Indianapolis Center
01:14PM 39.6956 -86.1169 35° Northeast 241 277 3,000  Level Indianapolis Center
01:15PM 39.7600 -86.0572 35° Northeast 241 277 3,000  Level Indianapolis Center
01:16PM 39.8142 -86.0075 35° Northeast 241 277 3,000  Level Indianapolis Center
01:18PM 39.8628 -86.0053 North 213 245 3,000  Level Indianapolis Center
01:19PM 39.8903 -86.0514 308° West 189 217 3,000  Level Indianapolis Center
01:20PM 39.8650 -86.0942 232° Southwest 164 189 3,000  Level Indianapolis Center
01:21PM 39.8286 -86.1400 224° Southwest 153 176 3,000  Level Indianapolis Center
01:22PM 39.7972 -86.1811 225° Southwest 156 180 3,000 -360 Level Indianapolis Center
01:23PM 39.7717 -86.2144 225° Southwest 146 168 2,300 -720 Descending Indianapolis Center
01:24PM 39.7456 -86.2472 224° Southwest 135 155 1,600 -780 Descending Indianapolis Center
01:25PM 39.7172 -86.2831 224° Southwest 135 155 800 -420 Descending Indianapolis Center
01:26PM 39.6906 -86.3169 224° Southwest 135 155 800  Level Indianapolis Center